Drew, Mississippi
Current Conditions -  °F | °C
As of 10:35 AM on Sunday 21 Dec 2014 (Local Time) from KRNV Reporting Station
Clear Clear  
Wind Chill: 47°   Ceiling: Unl
Heat Index: 49°   Visibility: 10mi
Dew Point: 38°   Wind: 5mph
Humidity: 67%   Direction: 90°E
Pressure: 30.18"   Gusts: NA
Location:  33.81°N, 90.53°W
Report Text: KRNV 211635Z AUTO 09004KT 10SM CLR 09/04 A3018 RMK AO2 T00940035
Loading
Personal Weather Stations






























Interactive Weather Map New forecast layout! Learn more

10-Day Weather Forecast

Advertisements
Track Severe Weather on mobile